Time;durP1;ratioP1;P1;durP2;ratioP2;P2;SDS_P1;SDS_P2;PMS_P1;PMS_P2;Temp;Humidity;BMP_temperature;BMP_pressure;BME280_temperature;BME280_humidity;BME280_pressure;Samples;Min_cycle;Max_cycle;Signal;HPM_P1;HPM_P2
2022/07/03 00:00:12;;;;;;;2.85;0.90;;;18.50;94.80;;;;;;5022789;28;20041;-80
2022/07/03 00:02:38;;;;;;;2.80;1.50;;;18.40;94.80;;;;;;5042302;28;20033;-83
2022/07/03 00:05:05;;;;;;;4.32;2.00;;;18.40;95.10;;;;;;5026388;28;20036;-81
2022/07/03 00:07:32;;;;;;;3.30;1.40;;;18.30;95.20;;;;;;5041513;28;20029;-75
2022/07/03 00:09:58;;;;;;;2.63;1.30;;;18.30;95.50;;;;;;5037359;28;20049;-76
2022/07/03 00:12:25;;;;;;;2.67;1.05;;;18.20;95.80;;;;;;5043514;28;20017;-75
2022/07/03 00:14:51;;;;;;;6.13;1.55;;;18.20;96.00;;;;;;5035739;28;20031;-76
2022/07/03 00:17:18;;;;;;;3.33;1.27;;;18.10;96.20;;;;;;5011290;28;20041;-75
2022/07/03 00:19:44;;;;;;;2.78;1.20;;;18.10;96.30;;;;;;5023847;28;20041;-75
2022/07/03 00:22:12;;;;;;;2.30;0.80;;;18.00;96.40;;;;;;5009118;28;20033;-76
2022/07/03 00:24:51;;;;;;;1.65;0.60;;;18.00;96.40;;;;;;5012921;28;20037;-76
2022/07/03 00:27:19;;;;;;;1.98;0.60;;;17.90;96.20;;;;;;5028170;28;20029;-82
2022/07/03 00:29:49;;;;;;;1.35;0.60;;;17.90;96.30;;;;;;5042455;28;20029;-82
2022/07/03 00:32:22;;;;;;;2.13;0.60;;;17.90;96.40;;;;;;5025348;28;20033;-81
2022/07/03 00:34:54;;;;;;;2.22;0.68;;;17.90;96.70;;;;;;5042652;28;20419;-83
2022/07/03 00:37:21;;;;;;;1.00;0.40;;;17.90;97.00;;;;;;5028664;28;20029;-82
2022/07/03 00:39:48;;;;;;;1.08;0.40;;;17.80;97.20;;;;;;5024858;28;20271;-80
2022/07/03 00:42:16;;;;;;;2.47;0.50;;;17.80;97.30;;;;;;5044236;28;20504;-80
2022/07/03 00:44:51;;;;;;;1.27;0.40;;;17.70;97.40;;;;;;5041523;28;20985;-75
2022/07/03 00:47:19;;;;;;;1.05;0.30;;;17.70;97.40;;;;;;5042346;28;20033;-75
2022/07/03 00:49:49;;;;;;;1.00;0.40;;;17.60;97.30;;;;;;5039740;28;20032;-76
2022/07/03 00:52:16;;;;;;;1.05;0.43;;;17.60;97.40;;;;;;5044803;28;20024;-75
2022/07/03 00:54:50;;;;;;;2.78;0.40;;;17.60;97.50;;;;;;5030172;28;20034;-75
2022/07/03 00:57:17;;;;;;;1.50;0.70;;;17.50;97.60;;;;;;5045064;28;20024;-76
2022/07/03 00:59:43;;;;;;;1.58;0.50;;;17.50;97.60;;;;;;5043312;28;20029;-75
2022/07/03 01:02:24;;;;;;;1.23;0.50;;;17.50;97.80;;;;;;5042084;28;20377;-75
2022/07/03 01:04:59;;;;;;;1.40;0.60;;;17.40;98.00;;;;;;5042630;28;20017;-76
2022/07/03 01:08:06;;;;;;;2.95;0.98;;;17.40;98.20;;;;;;5060770;28;20037;-75
2022/07/03 01:11:00;;;;;;;1.92;0.77;;;17.40;98.80;;;;;;5007134;28;20045;-75
2022/07/03 01:14:02;;;;;;;1.20;0.60;;;17.30;99.00;;;;;;5042546;28;20494;-75
2022/07/03 01:16:43;;;;;;;2.22;0.60;;;17.20;99.40;;;;;;5041356;28;20499;-75
2022/07/03 01:19:35;;;;;;;1.30;0.60;;;17.10;99.70;;;;;;5039743;28;20040;-75
2022/07/03 01:22:15;;;;;;;1.27;0.60;;;17.10;99.90;;;;;;5046479;28;20028;-75
2022/07/03 01:25:26;;;;;;;1.63;0.52;;;17.10;99.90;;;;;;5043849;28;20032;-75
2022/07/03 01:28:14;;;;;;;1.45;0.98;;;17.00;99.90;;;;;;5019237;28;20029;-75
2022/07/03 01:30:53;;;;;;;2.08;0.90;;;17.00;99.90;;;;;;5054005;28;20025;-80
2022/07/03 01:33:25;;;;;;;1.52;0.60;;;16.90;99.90;;;;;;5044839;28;20377;-79
2022/07/03 01:36:04;;;;;;;1.90;0.63;;;16.90;99.90;;;;;;5046614;28;20029;-80
2022/07/03 01:38:36;;;;;;;1.40;0.52;;;16.90;99.90;;;;;;5057237;28;20032;-79
2022/07/03 01:41:04;;;;;;;3.30;0.60;;;16.90;99.90;;;;;;5043078;28;20045;-79
2022/07/03 01:43:38;;;;;;;1.80;0.50;;;16.90;99.90;;;;;;5046584;28;20024;-80
2022/07/03 01:46:05;;;;;;;0.93;0.50;;;16.80;99.90;;;;;;5047003;28;20040;-80
2022/07/03 01:48:33;;;;;;;1.10;0.50;;;16.80;99.90;;;;;;5046283;28;20043;-79
2022/07/03 01:51:00;;;;;;;1.48;0.40;;;16.80;99.90;;;;;;5029474;28;20029;-79
2022/07/03 01:53:29;;;;;;;2.28;0.70;;;16.80;99.90;;;;;;5045930;28;20033;-80
2022/07/03 01:55:57;;;;;;;2.20;0.80;;;16.90;99.90;;;;;;5061681;28;20030;-79
2022/07/03 01:58:23;;;;;;;4.18;1.05;;;16.80;99.90;;;;;;5044370;28;20033;-79
2022/07/03 02:01:08;;;;;;;2.80;0.93;;;16.90;99.90;;;;;;5042576;28;20029;-80
2022/07/03 02:03:39;;;;;;;4.07;1.20;;;16.90;99.90;;;;;;5027250;28;20029;-79
2022/07/03 02:06:20;;;;;;;2.10;0.93;;;16.90;99.90;;;;;;5046321;28;20383;-80
2022/07/03 02:09:07;;;;;;;1.60;0.82;;;16.80;99.90;;;;;;5044679;28;20460;-80
2022/07/03 02:11:39;;;;;;;2.65;1.00;;;16.80;99.90;;;;;;5046778;28;20498;-79
2022/07/03 02:14:25;;;;;;;;;;;16.80;99.90;;;;;;5028492;28;20064;-79
2022/07/03 02:16:58;;;;;;;3.42;0.90;;;16.80;99.90;;;;;;5047498;28;20406;-79
2022/07/03 02:19:52;;;;;;;2.33;0.90;;;16.70;99.90;;;;;;5011982;28;20044;-79
2022/07/03 02:22:23;;;;;;;1.67;0.70;;;16.70;99.90;;;;;;5038418;28;20037;-79
2022/07/03 02:24:49;;;;;;;3.30;1.15;;;16.60;99.90;;;;;;5033486;28;20032;-79
2022/07/03 02:27:21;;;;;;;4.43;1.38;;;16.60;99.90;;;;;;5041941;28;20040;-79
2022/07/03 02:29:58;;;;;;;4.10;1.02;;;16.60;99.90;;;;;;5043321;28;20037;-80
2022/07/03 02:32:27;;;;;;;2.78;0.98;;;16.60;99.90;;;;;;5041485;28;20483;-79
2022/07/03 02:35:10;;;;;;;4.63;0.95;;;16.60;99.90;;;;;;5045841;28;20033;-80
2022/07/03 02:37:52;;;;;;;1.63;0.95;;;16.50;99.90;;;;;;5045891;28;20052;-79
2022/07/03 02:40:40;;;;;;;2.65;1.02;;;16.50;99.90;;;;;;5042910;28;20053;-80
2022/07/03 02:43:31;;;;;;;1.83;0.90;;;16.50;99.90;;;;;;5043364;28;20045;-79
2022/07/03 02:48:59;;;;;;;2.50;1.30;;;16.50;99.90;;;;;;5043686;28;20059;-79
2022/07/03 02:51:35;;;;;;;2.53;1.08;;;16.50;99.90;;;;;;5043354;28;20040;-80
2022/07/03 02:54:13;;;;;;;5.43;1.45;;;16.40;99.90;;;;;;5042720;28;20033;-79
2022/07/03 02:57:06;;;;;;;3.13;1.17;;;16.40;99.90;;;;;;5046350;28;20040;-80
2022/07/03 02:59:55;;;;;;;3.10;0.95;;;16.30;99.90;;;;;;5042748;28;20028;-79
2022/07/03 03:02:55;;;;;;;2.33;1.02;;;16.30;99.90;;;;;;5028470;28;20373;-79
2022/07/03 03:05:24;;;;;;;2.33;1.27;;;16.30;99.90;;;;;;5047757;28;20044;-79
2022/07/03 03:08:06;;;;;;;2.30;1.38;;;16.30;99.90;;;;;;5045142;28;20056;-79
2022/07/03 03:10:37;;;;;;;3.63;0.93;;;16.20;99.90;;;;;;5045823;28;20055;-79
2022/07/03 03:13:13;;;;;;;2.45;0.88;;;16.20;99.90;;;;;;5048557;28;20041;-79
2022/07/03 03:15:51;;;;;;;3.33;1.08;;;16.10;99.90;;;;;;5046556;28;20029;-79
2022/07/03 03:18:22;;;;;;;2.00;1.10;;;16.20;99.90;;;;;;5030002;28;20041;-79
2022/07/03 03:20:54;;;;;;;1.75;0.90;;;16.20;99.90;;;;;;5044792;28;20013;-79
2022/07/03 03:23:35;;;;;;;2.00;0.88;;;16.20;99.90;;;;;;5047451;28;20372;-79
2022/07/03 03:26:02;;;;;;;2.53;0.90;;;16.20;99.90;;;;;;5042102;28;22546;-79
2022/07/03 03:28:29;;;;;;;2.63;0.75;;;16.20;99.90;;;;;;5044154;28;20320;-79
2022/07/03 03:30:56;;;;;;;1.90;0.90;;;16.10;99.90;;;;;;5041371;28;20040;-79
2022/07/03 03:33:23;;;;;;;3.90;1.38;;;16.10;99.90;;;;;;5028642;28;20032;-79
2022/07/03 03:35:50;;;;;;;1.70;0.80;;;16.10;99.90;;;;;;5013244;28;20052;-79
2022/07/03 03:38:17;;;;;;;1.83;0.75;;;16.10;99.90;;;;;;5039340;28;20033;-79
2022/07/03 03:40:45;;;;;;;1.45;0.90;;;16.10;99.90;;;;;;5028108;28;20025;-79
2022/07/03 03:43:11;;;;;;;1.75;0.98;;;16.10;99.90;;;;;;5041793;28;20499;-79
2022/07/03 03:45:37;;;;;;;2.13;0.88;;;16.10;99.90;;;;;;5031742;28;20048;-76
2022/07/03 03:48:04;;;;;;;2.08;0.82;;;16.10;99.90;;;;;;5041466;28;20030;-75
2022/07/03 03:50:31;;;;;;;1.30;0.82;;;16.10;99.90;;;;;;5041713;28;20400;-75
2022/07/03 03:53:00;;;;;;;2.28;0.80;;;16.10;99.90;;;;;;5044897;28;20043;-75
2022/07/03 03:55:26;;;;;;;1.50;0.80;;;16.10;99.90;;;;;;5045998;28;20036;-75
2022/07/03 03:57:53;;;;;;;1.95;0.88;;;16.10;99.90;;;;;;5008223;28;20045;-76
2022/07/03 04:00:19;;;;;;;1.77;0.70;;;16.20;99.90;;;;;;5024522;28;20041;-75
2022/07/03 04:02:45;;;;;;;3.75;0.50;;;16.30;99.90;;;;;;5041273;28;20040;-75
2022/07/03 04:05:12;;;;;;;1.63;0.50;;;16.30;99.90;;;;;;5038680;28;20044;-75
2022/07/03 04:07:38;;;;;;;4.43;0.68;;;16.40;99.90;;;;;;5041024;28;20029;-75
2022/07/03 04:10:05;;;;;;;2.42;0.60;;;16.50;99.90;;;;;;5037839;28;21112;-75
2022/07/03 04:12:31;;;;;;;0.88;0.52;;;16.60;99.90;;;;;;5042966;28;20491;-75
2022/07/03 04:14:58;;;;;;;1.10;0.60;;;16.70;99.90;;;;;;5041413;28;20026;-75
2022/07/03 04:17:25;;;;;;;1.80;0.70;;;16.70;99.90;;;;;;5043643;28;20048;-76
2022/07/03 04:19:51;;;;;;;2.10;0.70;;;16.80;99.90;;;;;;5036832;28;20014;-75
2022/07/03 04:22:18;;;;;;;1.70;0.70;;;16.80;99.90;;;;;;5038832;28;20025;-75
2022/07/03 04:24:44;;;;;;;0.98;0.63;;;16.90;99.90;;;;;;5023346;28;20523;-75
2022/07/03 04:27:10;;;;;;;1.90;0.68;;;16.90;99.90;;;;;;5026938;28;20017;-75
2022/07/03 04:29:37;;;;;;;3.85;0.73;;;16.90;99.90;;;;;;5025875;28;20107;-75
2022/07/03 04:32:03;;;;;;;1.65;0.60;;;17.00;99.90;;;;;;5022774;28;20040;-75
2022/07/03 04:34:30;;;;;;;0.90;0.50;;;16.90;99.90;;;;;;5041573;28;20036;-74
2022/07/03 04:36:56;;;;;;;3.00;0.70;;;16.90;99.90;;;;;;5027850;28;20040;-75
2022/07/03 04:39:22;;;;;;;1.70;0.50;;;16.80;99.90;;;;;;5039823;28;20028;-75
2022/07/03 04:41:49;;;;;;;1.08;0.38;;;16.80;99.90;;;;;;5026504;28;20040;-75
2022/07/03 04:44:15;;;;;;;4.13;0.40;;;16.70;99.90;;;;;;5009889;28;20024;-74
2022/07/03 04:46:42;;;;;;;1.60;0.50;;;16.70;99.90;;;;;;5012776;28;20024;-76
2022/07/03 04:49:08;;;;;;;2.00;0.55;;;16.70;99.90;;;;;;5044048;28;20033;-75
2022/07/03 04:51:35;;;;;;;1.58;0.30;;;16.60;99.90;;;;;;5025756;28;20334;-75
2022/07/03 04:54:01;;;;;;;2.08;0.40;;;16.60;99.90;;;;;;5041143;28;20029;-75
2022/07/03 04:56:27;;;;;;;1.90;0.40;;;16.60;99.90;;;;;;5047033;28;20032;-75
2022/07/03 04:58:54;;;;;;;1.52;0.30;;;16.60;99.90;;;;;;5046682;28;20025;-75
2022/07/03 05:01:20;;;;;;;2.60;0.40;;;16.70;99.90;;;;;;5029149;28;20399;-75
2022/07/03 05:03:46;;;;;;;1.45;0.30;;;16.80;99.90;;;;;;5032894;28;20016;-75
2022/07/03 05:06:13;;;;;;;1.58;0.30;;;17.00;99.90;;;;;;5047383;28;20066;-75
2022/07/03 05:08:39;;;;;;;1.20;0.40;;;17.30;99.90;;;;;;5048645;28;20037;-76
2022/07/03 05:11:05;;;;;;;0.85;0.32;;;17.60;99.90;;;;;;5044802;28;20412;-75
2022/07/03 05:13:32;;;;;;;1.30;0.43;;;17.90;99.90;;;;;;5032023;28;20033;-76
2022/07/03 05:15:58;;;;;;;1.92;0.40;;;18.20;99.90;;;;;;5030329;28;20036;-75
2022/07/03 05:18:24;;;;;;;2.33;0.73;;;18.50;99.90;;;;;;5038626;28;20025;-75
2022/07/03 05:20:51;;;;;;;1.00;0.30;;;18.90;99.90;;;;;;5044025;28;20036;-75
2022/07/03 05:23:17;;;;;;;1.58;0.30;;;19.10;99.90;;;;;;5037687;28;20033;-75
2022/07/03 05:25:43;;;;;;;2.00;0.30;;;19.40;99.90;;;;;;5042955;28;20033;-75
2022/07/03 05:28:10;;;;;;;2.08;0.30;;;19.60;99.90;;;;;;5045167;28;20036;-76
2022/07/03 05:30:36;;;;;;;0.65;0.20;;;19.80;99.90;;;;;;5028540;28;20036;-75
2022/07/03 05:33:03;;;;;;;0.68;0.28;;;20.00;99.90;;;;;;5014865;28;20047;-75
2022/07/03 05:35:29;;;;;;;0.98;0.30;;;20.10;99.90;;;;;;5047595;28;20028;-76
2022/07/03 05:37:55;;;;;;;1.00;0.30;;;20.20;99.90;;;;;;5059375;28;20048;-75
2022/07/03 05:40:22;;;;;;;1.40;0.28;;;20.40;99.90;;;;;;5043301;28;20028;-75
2022/07/03 05:42:48;;;;;;;1.85;0.32;;;20.70;99.90;;;;;;5055603;28;20381;-75
2022/07/03 05:45:15;;;;;;;0.90;0.22;;;20.90;99.90;;;;;;5047389;28;20017;-76
2022/07/03 05:47:41;;;;;;;0.40;0.30;;;21.10;99.90;;;;;;5042237;28;20048;-75
2022/07/03 05:50:08;;;;;;;0.85;0.30;;;21.00;99.90;;;;;;5041400;28;20599;-75
2022/07/03 05:52:35;;;;;;;1.13;0.30;;;20.80;99.90;;;;;;5027980;28;20472;-75
2022/07/03 05:55:01;;;;;;;1.70;0.30;;;20.60;99.90;;;;;;5045356;28;20025;-76
2022/07/03 05:57:28;;;;;;;0.90;0.30;;;20.40;99.90;;;;;;5028194;28;20030;-77
2022/07/03 05:59:54;;;;;;;0.82;0.20;;;20.20;99.90;;;;;;5040494;28;20017;-75
2022/07/03 06:02:20;;;;;;;1.38;0.20;;;20.00;99.90;;;;;;5043705;28;20032;-75
2022/07/03 06:04:47;;;;;;;1.40;0.30;;;20.10;99.90;;;;;;5026929;28;20017;-75
2022/07/03 06:07:15;;;;;;;1.10;0.35;;;20.40;99.90;;;;;;5030553;28;20024;-75
2022/07/03 06:09:43;;;;;;;1.65;0.30;;;20.90;99.90;;;;;;5027771;28;20033;-75
2022/07/03 06:12:10;;;;;;;1.23;0.30;;;21.30;99.90;;;;;;5044821;28;20392;-75
2022/07/03 06:14:37;;;;;;;1.42;0.40;;;21.50;99.90;;;;;;5045829;28;20025;-75
2022/07/03 06:17:03;;;;;;;1.65;0.40;;;21.60;99.50;;;;;;5030824;28;20673;-75
2022/07/03 06:19:30;;;;;;;1.38;0.30;;;21.60;99.40;;;;;;5030734;28;20037;-75
2022/07/03 06:21:56;;;;;;;1.75;0.40;;;21.90;99.30;;;;;;5044071;28;20030;-75
2022/07/03 06:24:23;;;;;;;1.85;0.40;;;22.20;98.90;;;;;;5026609;28;20016;-75
2022/07/03 06:26:49;;;;;;;1.23;0.40;;;22.60;98.20;;;;;;5047099;28;20029;-75
2022/07/03 06:29:15;;;;;;;1.70;0.20;;;22.90;97.80;;;;;;5025046;28;20048;-75
2022/07/03 06:31:42;;;;;;;2.97;0.38;;;23.20;97.20;;;;;;5044619;28;20040;-76
2022/07/03 06:34:08;;;;;;;1.55;0.40;;;23.10;96.70;;;;;;5044491;28;20033;-76
2022/07/03 06:36:34;;;;;;;0.70;0.30;;;22.90;96.80;;;;;;5013040;28;20044;-75
2022/07/03 06:39:01;;;;;;;0.88;0.20;;;23.00;96.80;;;;;;5041026;28;20527;-76
2022/07/03 06:41:27;;;;;;;1.30;0.30;;;23.00;96.40;;;;;;5013212;28;20037;-75
2022/07/03 06:43:53;;;;;;;1.42;0.40;;;23.10;96.10;;;;;;5027797;28;21287;-75
2022/07/03 06:46:20;;;;;;;1.70;0.40;;;23.10;95.80;;;;;;5043459;28;21605;-75
2022/07/03 06:48:46;;;;;;;2.33;0.40;;;23.00;95.50;;;;;;5040668;28;20472;-75
2022/07/03 06:51:12;;;;;;;3.00;0.50;;;23.00;95.40;;;;;;5047095;28;20376;-75
2022/07/03 06:53:39;;;;;;;2.42;0.40;;;22.90;95.20;;;;;;5012344;28;20028;-75
2022/07/03 06:56:05;;;;;;;1.45;0.40;;;22.90;95.10;;;;;;5044663;28;20032;-75
2022/07/03 06:58:32;;;;;;;1.33;0.30;;;22.80;95.10;;;;;;5046025;28;20465;-75
2022/07/03 07:00:58;;;;;;;1.90;0.35;;;22.80;95.10;;;;;;5040583;28;20032;-75
2022/07/03 07:03:24;;;;;;;4.07;0.50;;;22.70;94.80;;;;;;5046080;28;20025;-75
2022/07/03 07:05:51;;;;;;;1.40;0.35;;;22.70;95.00;;;;;;5043357;28;20024;-75
2022/07/03 07:08:17;;;;;;;1.10;0.30;;;22.90;95.00;;;;;;5013521;28;20400;-76
2022/07/03 07:10:43;;;;;;;1.77;0.30;;;23.00;94.90;;;;;;5040311;28;20025;-75
2022/07/03 07:13:10;;;;;;;1.13;0.50;;;23.20;94.80;;;;;;5043376;28;20483;-75
2022/07/03 07:15:36;;;;;;;1.90;0.35;;;23.30;94.40;;;;;;5045668;28;20029;-75
2022/07/03 07:18:03;;;;;;;2.80;0.82;;;23.40;94.20;;;;;;5037252;28;20029;-80
2022/07/03 07:20:29;;;;;;;2.58;0.40;;;23.60;93.90;;;;;;5043101;28;20364;-78
2022/07/03 07:22:55;;;;;;;1.48;0.38;;;23.80;93.50;;;;;;5026755;28;20480;-78
2022/07/03 07:25:22;;;;;;;1.50;0.30;;;23.80;93.10;;;;;;5043242;28;20040;-79
2022/07/03 07:27:48;;;;;;;2.38;0.30;;;23.90;93.00;;;;;;5029061;28;20028;-77
2022/07/03 07:30:14;;;;;;;1.67;0.30;;;23.90;92.50;;;;;;5026090;28;20048;-79
2022/07/03 07:32:41;;;;;;;0.85;0.20;;;24.00;92.00;;;;;;5009590;28;20032;-79
2022/07/03 07:35:08;;;;;;;1.27;0.20;;;24.00;91.80;;;;;;5041398;28;21436;-79
2022/07/03 07:37:34;;;;;;;1.10;0.30;;;24.00;91.60;;;;;;5038899;28;20043;-78
2022/07/03 07:40:00;;;;;;;1.60;0.22;;;24.10;91.40;;;;;;5044151;28;20041;-78
2022/07/03 07:42:27;;;;;;;2.92;0.40;;;24.20;91.40;;;;;;5024823;28;20048;-79
2022/07/03 07:44:54;;;;;;;2.53;0.65;;;24.40;91.20;;;;;;5042958;28;20032;-79
2022/07/03 07:47:20;;;;;;;11.18;8.32;;;24.60;91.00;;;;;;5043818;28;20048;-79
2022/07/03 07:49:47;;;;;;;1.83;0.57;;;24.70;90.80;;;;;;5043995;28;20387;-78
2022/07/03 07:52:13;;;;;;;1.55;0.40;;;24.60;90.40;;;;;;5043486;28;20037;-78
2022/07/03 07:54:39;;;;;;;1.38;0.40;;;24.50;90.90;;;;;;5045480;28;20044;-79
2022/07/03 07:57:06;;;;;;;1.80;0.50;;;24.60;91.10;;;;;;5043862;28;20029;-80
2022/07/03 07:59:32;;;;;;;2.17;0.50;;;24.70;91.10;;;;;;5031001;28;20020;-76
2022/07/03 08:07:29;;;;;;;1.33;0.30;;;25.30;90.70;;;;;;5046120;28;20035;-79
2022/07/03 08:09:55;;;;;;;1.92;0.30;;;25.30;90.50;;;;;;5042426;28;20037;-79
2022/07/03 08:12:22;;;;;;;1.17;0.30;;;25.40;90.20;;;;;;5031467;28;20029;-79
2022/07/03 08:14:48;;;;;;;1.52;0.30;;;25.50;90.00;;;;;;5042982;28;20037;-79
2022/07/03 08:17:14;;;;;;;0.73;0.20;;;25.60;89.30;;;;;;5043331;28;20047;-80
2022/07/03 08:19:41;;;;;;;1.38;0.28;;;25.70;88.90;;;;;;5021668;28;20063;-80
2022/07/03 08:22:08;;;;;;;1.05;0.30;;;25.70;87.10;;;;;;5018402;28;20044;-80
2022/07/03 08:24:34;;;;;;;1.75;0.30;;;25.80;86.30;;;;;;5047130;28;20025;-80
2022/07/03 08:27:01;;;;;;;2.25;0.30;;;25.90;85.70;;;;;;5045040;28;20048;-80
2022/07/03 08:29:27;;;;;;;1.95;0.30;;;25.90;85.30;;;;;;5024804;28;20040;-80
2022/07/03 08:31:54;;;;;;;0.75;0.30;;;25.90;84.30;;;;;;5026348;28;20037;-80
2022/07/03 08:34:20;;;;;;;1.40;0.30;;;25.90;84.40;;;;;;5041584;28;20396;-80
2022/07/03 08:36:47;;;;;;;1.67;0.30;;;26.00;84.60;;;;;;5046839;28;20380;-80
2022/07/03 08:39:13;;;;;;;1.38;0.30;;;26.00;84.30;;;;;;5045608;28;20040;-80
2022/07/03 08:41:41;;;;;;;3.20;0.40;;;26.10;84.00;;;;;;5028746;28;20037;-81
2022/07/03 08:44:12;;;;;;;0.30;0.20;;;26.10;83.20;;;;;;5042146;28;20045;-81
2022/07/03 08:46:39;;;;;;;2.20;0.45;;;26.10;82.00;;;;;;5044907;28;20025;-81
2022/07/03 08:49:07;;;;;;;1.92;0.30;;;26.20;82.40;;;;;;5044510;28;20041;-81
2022/07/03 08:51:35;;;;;;;2.00;0.50;;;26.30;82.30;;;;;;5027365;28;20052;-81
2022/07/03 08:54:01;;;;;;;1.70;0.40;;;26.30;82.10;;;;;;5045175;28;20044;-81
2022/07/03 08:56:28;;;;;;;2.22;0.35;;;26.40;82.10;;;;;;5023807;28;20041;-82
2022/07/03 08:59:00;;;;;;;1.27;0.30;;;26.50;81.90;;;;;;5043990;28;20099;-81
2022/07/03 09:01:27;;;;;;;3.55;0.40;;;26.60;82.00;;;;;;5042101;28;20044;-79
2022/07/03 09:03:54;;;;;;;1.58;0.40;;;26.60;82.00;;;;;;5041920;28;20488;-79
2022/07/03 09:06:21;;;;;;;2.03;0.50;;;26.70;81.80;;;;;;5026970;28;20037;-79
2022/07/03 09:08:47;;;;;;;2.58;0.30;;;26.90;81.60;;;;;;5027592;28;20048;-78
2022/07/03 09:11:14;;;;;;;2.45;0.30;;;26.90;81.00;;;;;;5040126;28;20349;-78
2022/07/03 09:13:40;;;;;;;1.67;0.30;;;26.90;80.40;;;;;;5028369;28;20051;-80
2022/07/03 09:16:14;;;;;;;1.30;0.30;;;26.90;79.30;;;;;;5046315;28;21152;-80
2022/07/03 09:18:43;;;;;;;1.95;0.32;;;27.00;79.00;;;;;;5042849;28;20056;-80
2022/07/03 09:21:10;;;;;;;1.63;0.30;;;27.10;78.40;;;;;;5043019;28;20383;-76
2022/07/03 09:23:44;;;;;;;1.55;0.20;;;27.20;77.80;;;;;;5043160;28;20009;-77
2022/07/03 09:26:15;;;;;;;1.90;0.40;;;27.30;77.30;;;;;;5012717;28;20044;-75
2022/07/03 09:28:53;;;;;;;1.83;0.40;;;27.50;76.10;;;;;;5044080;28;20033;-76
2022/07/03 09:31:27;;;;;;;1.30;0.30;;;27.60;75.80;;;;;;5043674;28;20364;-77
2022/07/03 09:33:59;;;;;;;1.98;0.30;;;27.70;75.30;;;;;;5041657;28;20045;-78
2022/07/03 09:36:44;;;;;;;1.13;0.30;;;27.60;74.70;;;;;;5046160;28;20028;-77
2022/07/03 09:39:14;;;;;;;2.40;0.30;;;27.70;75.20;;;;;;5039020;28;20025;-77
2022/07/03 09:42:03;;;;;;;1.42;0.30;;;27.90;75.10;;;;;;5028633;28;20033;-78
2022/07/03 09:44:29;;;;;;;1.67;0.35;;;28.00;75.00;;;;;;5049096;28;20029;-77
2022/07/03 09:47:15;;;;;;;1.23;0.45;;;28.00;74.90;;;;;;5047942;28;20035;-77
2022/07/03 09:49:59;;;;;;;2.30;0.60;;;28.20;75.00;;;;;;5046767;28;20029;-77
2022/07/03 09:52:39;;;;;;;1.38;0.40;;;28.40;75.30;;;;;;5048601;28;20040;-77
2022/07/03 09:55:08;;;;;;;2.35;0.40;;;28.70;74.60;;;;;;5033082;28;20028;-77
2022/07/03 09:57:50;;;;;;;1.73;0.45;;;28.90;74.10;;;;;;5046259;28;20040;-77
2022/07/03 10:00:24;;;;;;;;;;;29.00;73.90;;;;;;5028472;28;20637;-77
2022/07/03 10:02:53;;;;;;;1.27;0.30;;;28.90;73.60;;;;;;5014896;28;19924;-78
2022/07/03 10:05:21;;;;;;;0.88;0.30;;;28.90;73.60;;;;;;5048747;28;20024;-78
2022/07/03 10:07:52;;;;;;;1.05;0.30;;;28.90;73.70;;;;;;5046620;28;20040;-76
2022/07/03 10:10:21;;;;;;;1.00;0.30;;;28.90;73.70;;;;;;5045067;28;20495;-77
2022/07/03 10:12:51;;;;;;;0.80;0.47;;;29.00;73.60;;;;;;5049111;28;20495;-76
2022/07/03 10:15:19;;;;;;;2.70;0.50;;;29.00;73.80;;;;;;5029542;28;20461;-77
2022/07/03 10:17:50;;;;;;;0.75;0.30;;;29.10;73.40;;;;;;5032308;28;20040;-75
2022/07/03 10:20:38;;;;;;;1.63;0.30;;;29.00;73.50;;;;;;5041474;28;20021;-76
2022/07/03 10:23:04;;;;;;;0.60;0.20;;;29.00;73.80;;;;;;5026129;28;20013;-76
2022/07/03 10:25:31;;;;;;;2.00;0.30;;;29.00;73.60;;;;;;5027028;28;20021;-76
2022/07/03 10:27:58;;;;;;;1.30;0.30;;;29.10;72.80;;;;;;5048203;28;20483;-75
2022/07/03 10:30:24;;;;;;;1.30;0.30;;;29.10;72.40;;;;;;5025646;28;20436;-75
2022/07/03 10:32:54;;;;;;;0.88;0.20;;;29.10;71.90;;;;;;5043424;28;20505;-75
2022/07/03 10:35:32;;;;;;;1.58;0.30;;;29.20;71.40;;;;;;5045540;28;20029;-75
2022/07/03 10:38:17;;;;;;;1.85;0.38;;;29.30;71.10;;;;;;5047461;28;20476;-76
2022/07/03 10:46:23;;;;;;;0.95;0.40;;;29.60;71.00;;;;;;5046675;28;20515;-75
2022/07/03 10:48:50;;;;;;;2.58;0.40;;;29.80;69.70;;;;;;5043332;28;20496;-75
2022/07/03 10:51:16;;;;;;;2.10;0.40;;;30.10;68.80;;;;;;5042554;28;20033;-76
2022/07/03 10:53:43;;;;;;;2.00;0.70;;;30.40;68.40;;;;;;5026878;28;20028;-74
2022/07/03 10:56:09;;;;;;;1.30;0.40;;;30.70;67.70;;;;;;5046384;28;20033;-74
2022/07/03 10:58:59;;;;;;;3.15;0.50;;;30.90;67.00;;;;;;5044234;28;20020;-74
2022/07/03 11:01:29;;;;;;;1.05;0.45;;;30.90;66.70;;;;;;5045168;28;20477;-74
2022/07/03 11:04:00;;;;;;;1.27;0.30;;;30.90;66.70;;;;;;5047870;28;20868;-77
2022/07/03 11:06:47;;;;;;;3.00;0.30;;;30.90;66.80;;;;;;5044212;28;20021;-74
2022/07/03 11:09:15;;;;;;;1.98;0.30;;;31.10;66.40;;;;;;5026684;28;20040;-74
2022/07/03 11:11:54;;;;;;;1.65;0.20;;;31.30;65.60;;;;;;5042414;28;20029;-74
2022/07/03 11:14:28;;;;;;;0.70;0.20;;;31.40;65.30;;;;;;5043965;28;20368;-74
2022/07/03 11:17:19;;;;;;;0.80;0.20;;;31.70;64.50;;;;;;5042227;28;20051;-74
2022/07/03 11:20:23;;;;;;;2.15;0.30;;;31.80;63.70;;;;;;5035312;28;20033;-74
2022/07/03 11:22:56;;;;;;;0.73;0.20;;;32.10;62.60;;;;;;5045925;28;20028;-74
2022/07/03 11:25:24;;;;;;;1.40;0.45;;;32.20;61.20;;;;;;5042749;28;20025;-75
2022/07/03 11:27:52;;;;;;;1.95;0.30;;;32.30;61.10;;;;;;5045182;28;20040;-74
2022/07/03 11:30:21;;;;;;;0.85;0.20;;;32.50;60.60;;;;;;5039496;28;20021;-74
2022/07/03 11:32:50;;;;;;;2.05;0.28;;;32.80;59.50;;;;;;5042659;28;20107;-74
2022/07/03 11:35:48;;;;;;;1.65;0.40;;;32.90;58.10;;;;;;5045003;28;20024;-74
2022/07/03 11:38:27;;;;;;;1.30;0.40;;;32.50;58.00;;;;;;5041224;28;20043;-74
2022/07/03 11:40:55;;;;;;;2.83;0.38;;;32.00;58.80;;;;;;5053511;28;20996;-74
2022/07/03 11:43:22;;;;;;;1.75;0.25;;;32.00;58.90;;;;;;5024952;28;20037;-74
2022/07/03 11:45:49;;;;;;;0.82;0.20;;;31.80;58.40;;;;;;5028931;28;20365;-74
2022/07/03 11:48:21;;;;;;;1.27;0.20;;;31.30;59.00;;;;;;5045975;28;20032;-74
2022/07/03 11:50:49;;;;;;;0.65;0.20;;;30.80;60.20;;;;;;5041132;28;20017;-74
2022/07/03 11:53:24;;;;;;;1.58;0.20;;;30.90;61.00;;;;;;5044762;28;21095;-74
2022/07/03 11:55:54;;;;;;;1.85;0.98;;;31.60;60.90;;;;;;5044102;28;20013;-74
2022/07/03 11:58:21;;;;;;;2.67;0.95;;;32.40;60.30;;;;;;5046058;28;20031;-74
2022/07/03 12:00:51;;;;;;;1.38;0.40;;;33.00;58.70;;;;;;5039976;28;20021;-73
2022/07/03 12:03:23;;;;;;;1.45;0.40;;;33.50;57.60;;;;;;5043210;28;20021;-76
2022/07/03 12:05:51;;;;;;;0.47;0.20;;;34.00;56.30;;;;;;5043477;28;20037;-75
2022/07/03 12:08:25;;;;;;;0.47;0.13;;;34.50;54.00;;;;;;5041842;28;20028;-75
2022/07/03 12:10:57;;;;;;;0.65;0.20;;;34.90;52.70;;;;;;5039745;28;20039;-76
2022/07/03 12:13:30;;;;;;;0.85;0.20;;;35.20;51.80;;;;;;5038877;28;20024;-76
2022/07/03 12:16:10;;;;;;;1.50;0.30;;;35.40;51.70;;;;;;5026637;28;20040;-76
2022/07/03 12:18:47;;;;;;;0.80;0.20;;;35.70;51.30;;;;;;5043202;28;20029;-75
2022/07/03 12:21:23;;;;;;;0.95;0.20;;;36.00;50.90;;;;;;5038519;28;20028;-75
2022/07/03 12:23:52;;;;;;;1.40;0.30;;;35.80;50.70;;;;;;5043294;28;20025;-76
2022/07/03 12:26:30;;;;;;;1.08;0.20;;;35.40;50.40;;;;;;5044919;28;20013;-76
2022/07/03 12:29:01;;;;;;;0.77;0.22;;;36.00;49.90;;;;;;5042237;28;20037;-76
2022/07/03 12:31:28;;;;;;;;;;;36.40;48.10;;;;;;5043234;28;20032;-75
2022/07/03 12:33:56;;;;;;;1.42;0.40;;;36.10;47.80;;;;;;5046032;28;20574;-76
2022/07/03 12:36:22;;;;;;;1.02;0.22;;;36.00;48.00;;;;;;5047824;28;20037;-76
2022/07/03 12:38:51;;;;;;;0.60;0.20;;;36.40;47.90;;;;;;5041318;28;20029;-76
2022/07/03 12:41:17;;;;;;;0.77;0.20;;;36.20;47.10;;;;;;5040952;28;20035;-75
2022/07/03 12:43:49;;;;;;;0.65;0.20;;;36.10;47.30;;;;;;5040938;28;20041;-75
2022/07/03 12:46:23;;;;;;;0.80;0.20;;;36.30;47.00;;;;;;5045542;28;20712;-75
2022/07/03 12:48:57;;;;;;;2.42;0.40;;;36.80;46.40;;;;;;5042045;28;20032;-74
2022/07/03 12:51:57;;;;;;;2.10;0.80;;;37.20;45.40;;;;;;5039043;28;20033;-74
2022/07/03 12:54:34;;;;;;;1.83;0.40;;;37.60;44.90;;;;;;4994034;28;20044;-74
2022/07/03 13:00:06;;;;;;;3.83;2.00;;;37.90;44.10;;;;;;5039892;28;20037;-74
2022/07/03 13:02:33;;;;;;;1.63;0.50;;;37.90;44.00;;;;;;5020431;28;20029;-75
2022/07/03 13:05:01;;;;;;;0.80;0.40;;;38.00;43.50;;;;;;5039586;28;20488;-74
2022/07/03 13:07:31;;;;;;;1.15;0.30;;;37.70;43.90;;;;;;5042413;28;20369;-74
2022/07/03 13:10:02;;;;;;;0.40;0.20;;;37.10;43.90;;;;;;5035669;28;20029;-74
2022/07/03 13:12:28;;;;;;;2.30;0.28;;;36.70;44.60;;;;;;5038595;28;20036;-74
2022/07/03 13:15:02;;;;;;;1.02;0.20;;;36.20;45.10;;;;;;5008666;28;20041;-75
2022/07/03 13:17:53;;;;;;;1.15;0.30;;;35.70;45.50;;;;;;5043951;28;20020;-75
2022/07/03 13:20:27;;;;;;;0.98;0.20;;;35.60;45.60;;;;;;5041215;28;21400;-75
2022/07/03 13:22:59;;;;;;;3.55;0.25;;;36.30;45.00;;;;;;5046038;28;20033;-75